Asteasu, Spain
Current Conditions -  °F | °C
As of 11:00 AM on Monday 26 Jan 2015 (Local Time) from LESO Reporting Station
Overcast Overcast  
Wind Chill: 45°   Ceiling: 4200
Heat Index: 45°   Visibility: 6mi
Dew Point: 36°   Wind: 1mph
Humidity: 71%   Direction: NA
Pressure: 30.53"   Gusts: NA
Location:  43.19°N, 2.1°W
Report Text: LESO 261000Z VRB01KT 9999 OVC042 07/02 Q1034
Loading
Personal Weather Stations






























Interactive Weather Map New forecast layout! Learn more

10-Day Weather Forecast

Advertisements
Track Severe Weather on mobile